Airfield :
LOGIN :

Register | Disclaimer

   EN    FR    IT 

 










Legend :    VFR   Marginal VFR   IFR   Intensive IFR   Very Intensive IFR
Visi :
Ceiling :
>= 8 km
>= 3000ft
5 to 8 km
1000 to 3000 ft
1500m to 5 km
500 to 1000 ft
800 to 1500m
200 to 500 ft
< 800m
< 200 ft
Symbols :   Thunderstorms  Fog  Heavy snow  Heavy precipitations  Wind > 20 kt
SIGMETs :     Misc.  Thunderstorms  Icing  Turbulence  Mountain Waves  Volcanic Ashes






- Airport Elevation : 74 ft
- IATA code : EIN


EHEH - Eindhoven

CURRENT METAR :
  • 181255Z AUTO 29006KT 230V020 9999 BKN071 OVC078 27/15 Q1020 BLU NOSIG

EXPIRED METARs :
  • 181225Z AUTO 29005KT 250V050 9999 SCT069 BKN075 BKN085 26/15 Q1020 BLU NOSIG
  • 181155Z AUTO VRB05KT 9999 FEW069 BKN074 BKN080 26/15 Q1020 BLU NOSIG
  • 181125Z AUTO 29005KT 190V330 9999 FEW074 26/15 Q1021 BLU NOSIG
  • 181055Z AUTO VRB05KT 9999 OVC380 25/15 Q1021 BLU NOSIG
  • 181025Z AUTO 27006KT 200V360 9999 OVC360 25/15 Q1021 BLU NOSIG

TAF TAF EHEH
Valid from the 18 at 12:00 until the 19 at 18:00 UTC


181114Z 1812/1918 27005KT CAVOK
PROB30
TEMPO 1814/1818 SCT040CB BKN050
BECMG 1817/1820 04005KT
TEMPO 1904/1908 21008G18KT 4500 SHRA SCT070CB BKN080
PROB30
TEMPO 1904/1906 3000 TSRA
TEMPO 1913/1916 26010G22KT 4000 SHRA TSRA SCT030 BKN045CB
PROB40
TEMPO 1914/1916 27018G38KT 2000 TSRAGR SCT020 BKN040CB



MET'MAP, your aeronautical weather chart ! - Copyright ORBIFLY December 2007 - Disclaimer

ORBIFLY MET'MAP TEAM :

Programming & Development : Alexandra Zaïnal
Original concept : Baudouin d'Aumeries
Technical & hardware support : Manuel Goepfert
Assistance : Marc-Olivier Méhu

Contact : metmap@orbifly.com




SOURCES & CREDITS :

   NOAA